sensor_id;sensor_type;location;lat;lon;timestamp;P1;durP1;ratioP1;P2;durP2;ratioP2
13002;SDS011;6566;57.702;11.984;2022-10-17T00:02:02;19.27;;;2.58;;
13002;SDS011;6566;57.702;11.984;2022-10-17T00:04:27;16.15;;;3.25;;
13002;SDS011;6566;57.702;11.984;2022-10-17T00:06:54;11.57;;;2.78;;
13002;SDS011;6566;57.702;11.984;2022-10-17T00:09:20;15.48;;;2.35;;
13002;SDS011;6566;57.702;11.984;2022-10-17T00:11:46;21.13;;;3.05;;
13002;SDS011;6566;57.702;11.984;2022-10-17T00:14:12;16.13;;;2.90;;
13002;SDS011;6566;57.702;11.984;2022-10-17T00:16:39;11.55;;;2.42;;
13002;SDS011;6566;57.702;11.984;2022-10-17T00:19:06;17.23;;;2.30;;
13002;SDS011;6566;57.702;11.984;2022-10-17T00:21:31;17.95;;;3.30;;
13002;SDS011;6566;57.702;11.984;2022-10-17T00:23:58;21.92;;;2.95;;
13002;SDS011;6566;57.702;11.984;2022-10-17T00:26:25;13.30;;;2.40;;
13002;SDS011;6566;57.702;11.984;2022-10-17T00:28:54;17.45;;;2.72;;
13002;SDS011;6566;57.702;11.984;2022-10-17T00:31:21;17.27;;;3.17;;
13002;SDS011;6566;57.702;11.984;2022-10-17T00:33:51;13.02;;;2.45;;
13002;SDS011;6566;57.702;11.984;2022-10-17T00:36:22;15.00;;;2.58;;
13002;SDS011;6566;57.702;11.984;2022-10-17T00:38:52;12.15;;;1.67;;
13002;SDS011;6566;57.702;11.984;2022-10-17T00:41:20;10.32;;;2.00;;
13002;SDS011;6566;57.702;11.984;2022-10-17T00:46:48;15.18;;;2.33;;
13002;SDS011;6566;57.702;11.984;2022-10-17T00:49:14;14.35;;;2.35;;
13002;SDS011;6566;57.702;11.984;2022-10-17T00:51:46;13.32;;;2.38;;
13002;SDS011;6566;57.702;11.984;2022-10-17T00:54:18;9.18;;;2.03;;
13002;SDS011;6566;57.702;11.984;2022-10-17T00:56:46;14.60;;;2.25;;
13002;SDS011;6566;57.702;11.984;2022-10-17T00:59:13;19.00;;;2.40;;
13002;SDS011;6566;57.702;11.984;2022-10-17T01:01:42;13.85;;;2.15;;
13002;SDS011;6566;57.702;11.984;2022-10-17T01:04:11;14.10;;;2.22;;
13002;SDS011;6566;57.702;11.984;2022-10-17T01:06:37;18.05;;;2.60;;
13002;SDS011;6566;57.702;11.984;2022-10-17T01:09:04;23.02;;;3.35;;
13002;SDS011;6566;57.702;11.984;2022-10-17T01:19:37;15.40;;;2.85;;
13002;SDS011;6566;57.702;11.984;2022-10-17T01:22:12;20.15;;;3.17;;
13002;SDS011;6566;57.702;11.984;2022-10-17T01:36:06;20.30;;;3.88;;
13002;SDS011;6566;57.702;11.984;2022-10-17T01:38:22;17.02;;;2.13;;
13002;SDS011;6566;57.702;11.984;2022-10-17T01:41:01;12.95;;;3.05;;
13002;SDS011;6566;57.702;11.984;2022-10-17T01:43:37;15.18;;;2.97;;
13002;SDS011;6566;57.702;11.984;2022-10-17T01:48:51;22.08;;;3.60;;
13002;SDS011;6566;57.702;11.984;2022-10-17T01:51:23;20.75;;;3.03;;
13002;SDS011;6566;57.702;11.984;2022-10-17T01:54:13;16.92;;;3.10;;
13002;SDS011;6566;57.702;11.984;2022-10-17T01:56:41;14.43;;;2.63;;
13002;SDS011;6566;57.702;11.984;2022-10-17T01:59:13;20.20;;;2.80;;
13002;SDS011;6566;57.702;11.984;2022-10-17T02:01:40;17.63;;;2.80;;
13002;SDS011;6566;57.702;11.984;2022-10-17T02:04:07;17.52;;;2.95;;
13002;SDS011;6566;57.702;11.984;2022-10-17T02:06:33;16.13;;;2.60;;
13002;SDS011;6566;57.702;11.984;2022-10-17T02:09:00;22.52;;;2.70;;
13002;SDS011;6566;57.702;11.984;2022-10-17T02:11:28;13.57;;;2.03;;
13002;SDS011;6566;57.702;11.984;2022-10-17T02:22:29;12.02;;;2.60;;
13002;SDS011;6566;57.702;11.984;2022-10-17T02:30:28;20.05;;;2.72;;
13002;SDS011;6566;57.702;11.984;2022-10-17T02:33:01;14.93;;;2.85;;
13002;SDS011;6566;57.702;11.984;2022-10-17T02:35:32;19.23;;;2.60;;
13002;SDS011;6566;57.702;11.984;2022-10-17T02:38:00;14.38;;;2.47;;
13002;SDS011;6566;57.702;11.984;2022-10-17T02:40:28;12.77;;;2.65;;
13002;SDS011;6566;57.702;11.984;2022-10-17T02:42:55;17.95;;;2.30;;
13002;SDS011;6566;57.702;11.984;2022-10-17T02:45:22;19.58;;;2.72;;
13002;SDS011;6566;57.702;11.984;2022-10-17T02:47:53;13.70;;;2.35;;
13002;SDS011;6566;57.702;11.984;2022-10-17T02:50:21;20.85;;;2.40;;
13002;SDS011;6566;57.702;11.984;2022-10-17T02:53:03;20.10;;;2.63;;
13002;SDS011;6566;57.702;11.984;2022-10-17T02:55:32;15.38;;;1.92;;
13002;SDS011;6566;57.702;11.984;2022-10-17T02:58:00;19.25;;;2.58;;
13002;SDS011;6566;57.702;11.984;2022-10-17T03:00:28;20.17;;;2.45;;
13002;SDS011;6566;57.702;11.984;2022-10-17T03:02:54;13.25;;;2.80;;
13002;SDS011;6566;57.702;11.984;2022-10-17T03:05:25;15.52;;;2.85;;
13002;SDS011;6566;57.702;11.984;2022-10-17T03:08:10;9.52;;;1.95;;
13002;SDS011;6566;57.702;11.984;2022-10-17T03:10:37;15.10;;;2.60;;
13002;SDS011;6566;57.702;11.984;2022-10-17T03:13:04;11.75;;;2.08;;
13002;SDS011;6566;57.702;11.984;2022-10-17T03:15:29;15.93;;;2.97;;
13002;SDS011;6566;57.702;11.984;2022-10-17T03:17:56;11.00;;;2.65;;
13002;SDS011;6566;57.702;11.984;2022-10-17T03:20:22;16.05;;;2.65;;
13002;SDS011;6566;57.702;11.984;2022-10-17T03:22:49;14.32;;;2.33;;
13002;SDS011;6566;57.702;11.984;2022-10-17T03:25:15;13.63;;;2.28;;
13002;SDS011;6566;57.702;11.984;2022-10-17T03:27:42;17.85;;;2.72;;
13002;SDS011;6566;57.702;11.984;2022-10-17T03:30:09;21.58;;;2.70;;
13002;SDS011;6566;57.702;11.984;2022-10-17T03:32:34;21.83;;;2.47;;
13002;SDS011;6566;57.702;11.984;2022-10-17T03:35:01;15.20;;;2.10;;
13002;SDS011;6566;57.702;11.984;2022-10-17T03:37:26;21.40;;;2.67;;
13002;SDS011;6566;57.702;11.984;2022-10-17T03:39:53;18.52;;;2.63;;
13002;SDS011;6566;57.702;11.984;2022-10-17T03:42:20;22.50;;;2.88;;
13002;SDS011;6566;57.702;11.984;2022-10-17T03:44:46;20.55;;;2.75;;
13002;SDS011;6566;57.702;11.984;2022-10-17T03:47:13;22.08;;;3.67;;
13002;SDS011;6566;57.702;11.984;2022-10-17T03:49:39;19.85;;;3.42;;
13002;SDS011;6566;57.702;11.984;2022-10-17T03:52:09;14.73;;;2.63;;
13002;SDS011;6566;57.702;11.984;2022-10-17T03:54:34;22.15;;;2.92;;
13002;SDS011;6566;57.702;11.984;2022-10-17T03:57:01;16.00;;;2.75;;
13002;SDS011;6566;57.702;11.984;2022-10-17T03:59:28;12.25;;;2.28;;
13002;SDS011;6566;57.702;11.984;2022-10-17T04:01:54;19.27;;;2.42;;
13002;SDS011;6566;57.702;11.984;2022-10-17T04:04:21;18.67;;;3.10;;
13002;SDS011;6566;57.702;11.984;2022-10-17T04:06:47;15.82;;;2.65;;
13002;SDS011;6566;57.702;11.984;2022-10-17T04:09:14;16.45;;;2.72;;
13002;SDS011;6566;57.702;11.984;2022-10-17T04:11:40;20.48;;;2.80;;
13002;SDS011;6566;57.702;11.984;2022-10-17T04:14:08;14.52;;;2.75;;
13002;SDS011;6566;57.702;11.984;2022-10-17T04:16:34;15.23;;;2.63;;
13002;SDS011;6566;57.702;11.984;2022-10-17T04:19:01;13.75;;;3.15;;
13002;SDS011;6566;57.702;11.984;2022-10-17T04:21:28;13.82;;;2.45;;
13002;SDS011;6566;57.702;11.984;2022-10-17T04:23:59;18.42;;;2.97;;
13002;SDS011;6566;57.702;11.984;2022-10-17T04:26:24;13.25;;;2.70;;
13002;SDS011;6566;57.702;11.984;2022-10-17T04:28:51;12.95;;;2.72;;
13002;SDS011;6566;57.702;11.984;2022-10-17T04:31:18;15.27;;;2.72;;
13002;SDS011;6566;57.702;11.984;2022-10-17T04:33:46;18.60;;;3.70;;
13002;SDS011;6566;57.702;11.984;2022-10-17T04:36:14;11.15;;;3.03;;
13002;SDS011;6566;57.702;11.984;2022-10-17T04:38:40;15.32;;;2.67;;
13002;SDS011;6566;57.702;11.984;2022-10-17T04:41:08;20.35;;;2.83;;
13002;SDS011;6566;57.702;11.984;2022-10-17T04:43:35;18.48;;;2.58;;
13002;SDS011;6566;57.702;11.984;2022-10-17T04:46:04;15.55;;;2.72;;
13002;SDS011;6566;57.702;11.984;2022-10-17T04:48:29;19.05;;;3.13;;
13002;SDS011;6566;57.702;11.984;2022-10-17T04:50:57;16.83;;;2.85;;
13002;SDS011;6566;57.702;11.984;2022-10-17T04:53:24;14.55;;;2.60;;
13002;SDS011;6566;57.702;11.984;2022-10-17T04:55:49;17.70;;;2.45;;
13002;SDS011;6566;57.702;11.984;2022-10-17T04:58:16;15.10;;;2.78;;
13002;SDS011;6566;57.702;11.984;2022-10-17T05:00:41;22.65;;;3.10;;
13002;SDS011;6566;57.702;11.984;2022-10-17T05:03:07;14.30;;;2.40;;
13002;SDS011;6566;57.702;11.984;2022-10-17T05:07:59;13.07;;;2.72;;
13002;SDS011;6566;57.702;11.984;2022-10-17T05:10:26;19.23;;;2.97;;
13002;SDS011;6566;57.702;11.984;2022-10-17T05:12:52;16.88;;;2.85;;
13002;SDS011;6566;57.702;11.984;2022-10-17T05:15:19;21.75;;;3.55;;
13002;SDS011;6566;57.702;11.984;2022-10-17T05:17:46;19.17;;;2.80;;
13002;SDS011;6566;57.702;11.984;2022-10-17T05:20:11;16.30;;;2.95;;
13002;SDS011;6566;57.702;11.984;2022-10-17T05:22:38;22.77;;;2.95;;
13002;SDS011;6566;57.702;11.984;2022-10-17T05:25:05;17.70;;;3.10;;
13002;SDS011;6566;57.702;11.984;2022-10-17T05:27:32;24.45;;;3.35;;
13002;SDS011;6566;57.702;11.984;2022-10-17T05:29:58;20.92;;;3.85;;
13002;SDS011;6566;57.702;11.984;2022-10-17T05:32:25;20.40;;;2.67;;
13002;SDS011;6566;57.702;11.984;2022-10-17T05:34:51;20.45;;;3.05;;
13002;SDS011;6566;57.702;11.984;2022-10-17T05:37:18;21.75;;;3.92;;
13002;SDS011;6566;57.702;11.984;2022-10-17T05:39:45;22.90;;;3.60;;
13002;SDS011;6566;57.702;11.984;2022-10-17T05:42:11;23.33;;;3.17;;
13002;SDS011;6566;57.702;11.984;2022-10-17T05:44:38;19.38;;;3.20;;
13002;SDS011;6566;57.702;11.984;2022-10-17T05:47:10;21.20;;;3.13;;
13002;SDS011;6566;57.702;11.984;2022-10-17T05:49:36;20.10;;;3.28;;
13002;SDS011;6566;57.702;11.984;2022-10-17T05:52:03;17.10;;;3.10;;
13002;SDS011;6566;57.702;11.984;2022-10-17T05:54:30;24.50;;;3.70;;
13002;SDS011;6566;57.702;11.984;2022-10-17T05:56:56;19.13;;;3.22;;
13002;SDS011;6566;57.702;11.984;2022-10-17T05:59:24;19.95;;;3.33;;
13002;SDS011;6566;57.702;11.984;2022-10-17T06:01:50;31.02;;;3.50;;
13002;SDS011;6566;57.702;11.984;2022-10-17T06:04:17;17.75;;;2.92;;
13002;SDS011;6566;57.702;11.984;2022-10-17T06:06:42;22.42;;;3.42;;
13002;SDS011;6566;57.702;11.984;2022-10-17T06:09:09;21.50;;;4.15;;
13002;SDS011;6566;57.702;11.984;2022-10-17T06:11:36;18.20;;;2.75;;
13002;SDS011;6566;57.702;11.984;2022-10-17T06:14:02;14.40;;;2.80;;
13002;SDS011;6566;57.702;11.984;2022-10-17T06:16:29;18.98;;;3.05;;
13002;SDS011;6566;57.702;11.984;2022-10-17T06:18:55;19.20;;;3.10;;
13002;SDS011;6566;57.702;11.984;2022-10-17T06:21:23;18.95;;;2.97;;
13002;SDS011;6566;57.702;11.984;2022-10-17T06:23:49;20.67;;;3.17;;
13002;SDS011;6566;57.702;11.984;2022-10-17T06:26:16;18.00;;;3.13;;
13002;SDS011;6566;57.702;11.984;2022-10-17T06:28:43;22.35;;;3.03;;
13002;SDS011;6566;57.702;11.984;2022-10-17T06:31:13;23.85;;;3.72;;
13002;SDS011;6566;57.702;11.984;2022-10-17T06:33:40;25.45;;;3.05;;
13002;SDS011;6566;57.702;11.984;2022-10-17T06:36:09;15.60;;;2.90;;
13002;SDS011;6566;57.702;11.984;2022-10-17T06:38:35;25.58;;;3.83;;
13002;SDS011;6566;57.702;11.984;2022-10-17T06:41:11;22.30;;;3.33;;
13002;SDS011;6566;57.702;11.984;2022-10-17T06:43:39;19.45;;;3.22;;
13002;SDS011;6566;57.702;11.984;2022-10-17T06:46:06;17.23;;;2.88;;
13002;SDS011;6566;57.702;11.984;2022-10-17T06:48:32;18.95;;;3.10;;
13002;SDS011;6566;57.702;11.984;2022-10-17T06:50:59;18.55;;;3.40;;
13002;SDS011;6566;57.702;11.984;2022-10-17T06:53:29;20.00;;;3.03;;
13002;SDS011;6566;57.702;11.984;2022-10-17T06:55:56;20.08;;;2.97;;
13002;SDS011;6566;57.702;11.984;2022-10-17T06:58:29;14.40;;;3.50;;
13002;SDS011;6566;57.702;11.984;2022-10-17T07:01:02;22.30;;;3.33;;
13002;SDS011;6566;57.702;11.984;2022-10-17T07:03:30;17.05;;;3.35;;
13002;SDS011;6566;57.702;11.984;2022-10-17T07:05:56;22.25;;;3.90;;
13002;SDS011;6566;57.702;11.984;2022-10-17T07:08:23;21.08;;;3.17;;
13002;SDS011;6566;57.702;11.984;2022-10-17T07:10:50;16.50;;;3.22;;
13002;SDS011;6566;57.702;11.984;2022-10-17T07:13:22;21.42;;;3.40;;
13002;SDS011;6566;57.702;11.984;2022-10-17T07:15:48;19.50;;;2.85;;
13002;SDS011;6566;57.702;11.984;2022-10-17T07:18:15;20.48;;;3.13;;
13002;SDS011;6566;57.702;11.984;2022-10-17T07:20:40;25.02;;;3.08;;
13002;SDS011;6566;57.702;11.984;2022-10-17T07:23:07;16.17;;;3.08;;
13002;SDS011;6566;57.702;11.984;2022-10-17T07:25:33;20.83;;;3.92;;
13002;SDS011;6566;57.702;11.984;2022-10-17T07:28:00;12.93;;;3.40;;
13002;SDS011;6566;57.702;11.984;2022-10-17T07:30:28;22.15;;;3.38;;
13002;SDS011;6566;57.702;11.984;2022-10-17T07:32:56;13.80;;;3.40;;
13002;SDS011;6566;57.702;11.984;2022-10-17T07:35:23;16.42;;;2.83;;
13002;SDS011;6566;57.702;11.984;2022-10-17T07:37:49;18.55;;;2.97;;
13002;SDS011;6566;57.702;11.984;2022-10-17T07:40:16;19.35;;;3.78;;
13002;SDS011;6566;57.702;11.984;2022-10-17T07:42:43;21.83;;;3.65;;
13002;SDS011;6566;57.702;11.984;2022-10-17T07:45:10;17.58;;;3.05;;
13002;SDS011;6566;57.702;11.984;2022-10-17T07:47:37;18.27;;;3.13;;
13002;SDS011;6566;57.702;11.984;2022-10-17T07:50:04;19.80;;;3.17;;
13002;SDS011;6566;57.702;11.984;2022-10-17T07:52:30;15.23;;;3.95;;
13002;SDS011;6566;57.702;11.984;2022-10-17T07:54:57;23.23;;;3.03;;
13002;SDS011;6566;57.702;11.984;2022-10-17T07:57:24;11.38;;;2.35;;
13002;SDS011;6566;57.702;11.984;2022-10-17T07:59:50;19.85;;;2.80;;
13002;SDS011;6566;57.702;11.984;2022-10-17T08:02:22;18.38;;;3.08;;
13002;SDS011;6566;57.702;11.984;2022-10-17T08:04:49;21.85;;;3.13;;
13002;SDS011;6566;57.702;11.984;2022-10-17T08:07:16;20.65;;;3.08;;
13002;SDS011;6566;57.702;11.984;2022-10-17T08:09:42;18.83;;;3.72;;
13002;SDS011;6566;57.702;11.984;2022-10-17T08:12:09;19.13;;;2.58;;
13002;SDS011;6566;57.702;11.984;2022-10-17T08:14:34;13.65;;;2.90;;
13002;SDS011;6566;57.702;11.984;2022-10-17T08:17:01;17.05;;;2.90;;
13002;SDS011;6566;57.702;11.984;2022-10-17T08:19:27;20.10;;;3.20;;
13002;SDS011;6566;57.702;11.984;2022-10-17T08:21:52;13.63;;;3.13;;
13002;SDS011;6566;57.702;11.984;2022-10-17T08:24:19;19.77;;;2.75;;
13002;SDS011;6566;57.702;11.984;2022-10-17T08:26:45;15.23;;;3.28;;
13002;SDS011;6566;57.702;11.984;2022-10-17T08:29:12;12.68;;;2.67;;
13002;SDS011;6566;57.702;11.984;2022-10-17T08:31:38;19.00;;;2.63;;
13002;SDS011;6566;57.702;11.984;2022-10-17T08:34:04;20.58;;;3.42;;
13002;SDS011;6566;57.702;11.984;2022-10-17T08:36:31;19.27;;;3.15;;
13002;SDS011;6566;57.702;11.984;2022-10-17T08:38:57;17.92;;;2.60;;
13002;SDS011;6566;57.702;11.984;2022-10-17T08:46:33;14.02;;;2.85;;
13002;SDS011;6566;57.702;11.984;2022-10-17T08:49:01;19.63;;;2.75;;
13002;SDS011;6566;57.702;11.984;2022-10-17T08:51:29;16.10;;;2.70;;
13002;SDS011;6566;57.702;11.984;2022-10-17T08:56:44;20.67;;;2.95;;
13002;SDS011;6566;57.702;11.984;2022-10-17T08:59:29;12.32;;;2.85;;
13002;SDS011;6566;57.702;11.984;2022-10-17T09:15:37;14.73;;;2.25;;
13002;SDS011;6566;57.702;11.984;2022-10-17T09:18:44;10.43;;;2.67;;
13002;SDS011;6566;57.702;11.984;2022-10-17T09:21:14;18.33;;;3.38;;
13002;SDS011;6566;57.702;11.984;2022-10-17T09:23:47;14.95;;;3.03;;
13002;SDS011;6566;57.702;11.984;2022-10-17T09:26:18;19.38;;;2.47;;
13002;SDS011;6566;57.702;11.984;2022-10-17T09:28:46;20.95;;;3.53;;
13002;SDS011;6566;57.702;11.984;2022-10-17T09:31:22;19.83;;;2.85;;
13002;SDS011;6566;57.702;11.984;2022-10-17T09:33:50;16.63;;;2.35;;
13002;SDS011;6566;57.702;11.984;2022-10-17T09:36:26;18.40;;;2.67;;
13002;SDS011;6566;57.702;11.984;2022-10-17T09:38:54;15.88;;;2.30;;
13002;SDS011;6566;57.702;11.984;2022-10-17T09:41:21;17.85;;;2.83;;
13002;SDS011;6566;57.702;11.984;2022-10-17T09:43:47;16.40;;;2.85;;
13002;SDS011;6566;57.702;11.984;2022-10-17T09:46:22;16.85;;;2.42;;
13002;SDS011;6566;57.702;11.984;2022-10-17T09:48:55;16.25;;;2.33;;
13002;SDS011;6566;57.702;11.984;2022-10-17T09:51:25;20.83;;;2.90;;
13002;SDS011;6566;57.702;11.984;2022-10-17T09:53:55;14.07;;;2.63;;
13002;SDS011;6566;57.702;11.984;2022-10-17T09:56:24;13.98;;;2.22;;
13002;SDS011;6566;57.702;11.984;2022-10-17T09:58:51;20.20;;;2.70;;
13002;SDS011;6566;57.702;11.984;2022-10-17T10:01:26;12.85;;;2.20;;
13002;SDS011;6566;57.702;11.984;2022-10-17T10:07:02;12.00;;;2.63;;
13002;SDS011;6566;57.702;11.984;2022-10-17T10:09:31;19.30;;;3.05;;
13002;SDS011;6566;57.702;11.984;2022-10-17T10:11:59;16.23;;;2.80;;
13002;SDS011;6566;57.702;11.984;2022-10-17T10:14:35;14.75;;;2.60;;
13002;SDS011;6566;57.702;11.984;2022-10-17T10:17:03;18.88;;;2.90;;
13002;SDS011;6566;57.702;11.984;2022-10-17T10:19:33;14.80;;;2.70;;
13002;SDS011;6566;57.702;11.984;2022-10-17T10:22:09;18.88;;;2.50;;
13002;SDS011;6566;57.702;11.984;2022-10-17T10:24:40;12.20;;;2.10;;
13002;SDS011;6566;57.702;11.984;2022-10-17T10:27:14;13.98;;;2.70;;
13002;SDS011;6566;57.702;11.984;2022-10-17T10:29:42;18.77;;;2.78;;
13002;SDS011;6566;57.702;11.984;2022-10-17T10:32:19;13.05;;;2.58;;
13002;SDS011;6566;57.702;11.984;2022-10-17T10:34:51;11.65;;;2.30;;
13002;SDS011;6566;57.702;11.984;2022-10-17T10:37:28;20.38;;;3.45;;
13002;SDS011;6566;57.702;11.984;2022-10-17T10:40:00;15.32;;;2.80;;
13002;SDS011;6566;57.702;11.984;2022-10-17T10:45:00;14.13;;;2.60;;
13002;SDS011;6566;57.702;11.984;2022-10-17T10:47:31;13.55;;;2.05;;
13002;SDS011;6566;57.702;11.984;2022-10-17T10:50:08;20.02;;;3.20;;
13002;SDS011;6566;57.702;11.984;2022-10-17T10:52:44;11.77;;;2.13;;
13002;SDS011;6566;57.702;11.984;2022-10-17T10:55:30;16.10;;;2.35;;
13002;SDS011;6566;57.702;11.984;2022-10-17T10:58:00;11.68;;;2.33;;
13002;SDS011;6566;57.702;11.984;2022-10-17T11:00:28;18.67;;;2.65;;
13002;SDS011;6566;57.702;11.984;2022-10-17T11:03:06;16.48;;;2.75;;
13002;SDS011;6566;57.702;11.984;2022-10-17T11:05:43;12.50;;;2.10;;
13002;SDS011;6566;57.702;11.984;2022-10-17T11:08:37;16.27;;;3.05;;
13002;SDS011;6566;57.702;11.984;2022-10-17T11:14:37;17.58;;;2.47;;
13002;SDS011;6566;57.702;11.984;2022-10-17T11:16:41;13.25;;;2.92;;
13002;SDS011;6566;57.702;11.984;2022-10-17T11:19:15;12.80;;;2.83;;
13002;SDS011;6566;57.702;11.984;2022-10-17T11:22:06;16.10;;;2.65;;
13002;SDS011;6566;57.702;11.984;2022-10-17T11:24:37;11.80;;;2.08;;
13002;SDS011;6566;57.702;11.984;2022-10-17T11:27:06;17.42;;;2.45;;
13002;SDS011;6566;57.702;11.984;2022-10-17T11:29:34;14.15;;;2.25;;
13002;SDS011;6566;57.702;11.984;2022-10-17T11:32:05;14.18;;;2.50;;
13002;SDS011;6566;57.702;11.984;2022-10-17T11:34:35;9.88;;;2.13;;
13002;SDS011;6566;57.702;11.984;2022-10-17T11:37:06;12.82;;;3.25;;
13002;SDS011;6566;57.702;11.984;2022-10-17T11:42:27;14.95;;;2.70;;
13002;SDS011;6566;57.702;11.984;2022-10-17T11:44:57;18.25;;;2.80;;
13002;SDS011;6566;57.702;11.984;2022-10-17T12:13:48;12.90;;;2.30;;
13002;SDS011;6566;57.702;11.984;2022-10-17T12:16:35;13.45;;;2.30;;
13002;SDS011;6566;57.702;11.984;2022-10-17T12:19:18;12.93;;;2.47;;
13002;SDS011;6566;57.702;11.984;2022-10-17T12:22:27;18.05;;;2.50;;
13002;SDS011;6566;57.702;11.984;2022-10-17T12:24:42;14.43;;;2.40;;
13002;SDS011;6566;57.702;11.984;2022-10-17T12:30:15;10.82;;;1.85;;
13002;SDS011;6566;57.702;11.984;2022-10-17T12:35:26;13.40;;;1.90;;
13002;SDS011;6566;57.702;11.984;2022-10-17T12:45:58;10.20;;;2.28;;
13002;SDS011;6566;57.702;11.984;2022-10-17T12:51:17;7.45;;;2.03;;
13002;SDS011;6566;57.702;11.984;2022-10-17T12:54:00;11.25;;;3.08;;
13002;SDS011;6566;57.702;11.984;2022-10-17T12:56:44;8.18;;;2.17;;
13002;SDS011;6566;57.702;11.984;2022-10-17T12:59:19;9.98;;;1.63;;
13002;SDS011;6566;57.702;11.984;2022-10-17T13:01:47;8.68;;;1.73;;
13002;SDS011;6566;57.702;11.984;2022-10-17T13:04:15;9.93;;;1.70;;
13002;SDS011;6566;57.702;11.984;2022-10-17T13:06:52;10.93;;;2.13;;
13002;SDS011;6566;57.702;11.984;2022-10-17T13:09:36;8.95;;;2.33;;
13002;SDS011;6566;57.702;11.984;2022-10-17T13:12:04;10.70;;;2.17;;
13002;SDS011;6566;57.702;11.984;2022-10-17T13:14:32;9.73;;;1.83;;
13002;SDS011;6566;57.702;11.984;2022-10-17T13:17:02;10.15;;;2.20;;
13002;SDS011;6566;57.702;11.984;2022-10-17T13:19:39;9.15;;;2.00;;
13002;SDS011;6566;57.702;11.984;2022-10-17T13:25:18;7.63;;;2.20;;
13002;SDS011;6566;57.702;11.984;2022-10-17T13:27:45;6.07;;;1.88;;
13002;SDS011;6566;57.702;11.984;2022-10-17T13:30:29;11.07;;;2.42;;
13002;SDS011;6566;57.702;11.984;2022-10-17T13:32:55;10.77;;;2.15;;
13002;SDS011;6566;57.702;11.984;2022-10-17T13:35:23;7.13;;;2.22;;
13002;SDS011;6566;57.702;11.984;2022-10-17T13:37:50;8.95;;;2.00;;
13002;SDS011;6566;57.702;11.984;2022-10-17T13:42:42;9.27;;;2.22;;
13002;SDS011;6566;57.702;11.984;2022-10-17T13:45:16;10.35;;;2.08;;
13002;SDS011;6566;57.702;11.984;2022-10-17T13:47:44;9.18;;;1.98;;
13002;SDS011;6566;57.702;11.984;2022-10-17T13:50:15;15.93;;;2.60;;
13002;SDS011;6566;57.702;11.984;2022-10-17T13:52:44;11.40;;;2.67;;
13002;SDS011;6566;57.702;11.984;2022-10-17T13:55:17;8.68;;;1.92;;
13002;SDS011;6566;57.702;11.984;2022-10-17T13:57:45;13.95;;;2.30;;
13002;SDS011;6566;57.702;11.984;2022-10-17T14:00:17;8.30;;;2.08;;
13002;SDS011;6566;57.702;11.984;2022-10-17T14:02:46;10.23;;;1.90;;
13002;SDS011;6566;57.702;11.984;2022-10-17T14:05:15;10.52;;;2.22;;
13002;SDS011;6566;57.702;11.984;2022-10-17T14:07:53;11.75;;;2.40;;
13002;SDS011;6566;57.702;11.984;2022-10-17T14:12:52;9.00;;;1.92;;
13002;SDS011;6566;57.702;11.984;2022-10-17T14:15:21;8.93;;;1.73;;
13002;SDS011;6566;57.702;11.984;2022-10-17T14:17:53;7.10;;;2.10;;
13002;SDS011;6566;57.702;11.984;2022-10-17T14:20:20;12.15;;;2.63;;
13002;SDS011;6566;57.702;11.984;2022-10-17T14:22:51;10.73;;;2.10;;
13002;SDS011;6566;57.702;11.984;2022-10-17T14:25:30;7.63;;;2.00;;
13002;SDS011;6566;57.702;11.984;2022-10-17T14:28:18;9.82;;;2.17;;
13002;SDS011;6566;57.702;11.984;2022-10-17T14:30:47;12.23;;;2.03;;
13002;SDS011;6566;57.702;11.984;2022-10-17T14:33:18;11.10;;;1.98;;
13002;SDS011;6566;57.702;11.984;2022-10-17T14:35:56;10.80;;;1.60;;
13002;SDS011;6566;57.702;11.984;2022-10-17T14:38:23;6.93;;;1.75;;
13002;SDS011;6566;57.702;11.984;2022-10-17T14:41:08;8.80;;;1.92;;
13002;SDS011;6566;57.702;11.984;2022-10-17T14:43:37;8.27;;;2.10;;
13002;SDS011;6566;57.702;11.984;2022-10-17T14:46:05;6.90;;;2.03;;
13002;SDS011;6566;57.702;11.984;2022-10-17T14:48:31;5.97;;;1.63;;
13002;SDS011;6566;57.702;11.984;2022-10-17T14:51:15;6.03;;;1.63;;
13002;SDS011;6566;57.702;11.984;2022-10-17T14:53:43;8.32;;;2.00;;
13002;SDS011;6566;57.702;11.984;2022-10-17T14:56:21;7.25;;;1.90;;
13002;SDS011;6566;57.702;11.984;2022-10-17T14:58:47;11.07;;;2.30;;
13002;SDS011;6566;57.702;11.984;2022-10-17T15:01:14;10.63;;;2.15;;
13002;SDS011;6566;57.702;11.984;2022-10-17T15:03:40;8.93;;;2.10;;
13002;SDS011;6566;57.702;11.984;2022-10-17T15:08:41;8.63;;;2.15;;
13002;SDS011;6566;57.702;11.984;2022-10-17T15:11:08;7.20;;;2.38;;
13002;SDS011;6566;57.702;11.984;2022-10-17T15:13:36;8.43;;;2.10;;
13002;SDS011;6566;57.702;11.984;2022-10-17T15:16:01;8.18;;;1.90;;
13002;SDS011;6566;57.702;11.984;2022-10-17T15:18:27;6.72;;;1.70;;
13002;SDS011;6566;57.702;11.984;2022-10-17T15:20:53;7.72;;;1.70;;
13002;SDS011;6566;57.702;11.984;2022-10-17T15:23:19;8.23;;;2.25;;
13002;SDS011;6566;57.702;11.984;2022-10-17T15:25:46;7.75;;;2.20;;
13002;SDS011;6566;57.702;11.984;2022-10-17T15:28:14;10.50;;;2.10;;
13002;SDS011;6566;57.702;11.984;2022-10-17T15:30:40;9.60;;;2.33;;
13002;SDS011;6566;57.702;11.984;2022-10-17T15:33:07;9.20;;;2.20;;
13002;SDS011;6566;57.702;11.984;2022-10-17T15:35:33;10.15;;;2.47;;
13002;SDS011;6566;57.702;11.984;2022-10-17T15:38:01;9.57;;;2.28;;
13002;SDS011;6566;57.702;11.984;2022-10-17T15:40:28;7.18;;;2.47;;
13002;SDS011;6566;57.702;11.984;2022-10-17T15:42:55;8.55;;;2.72;;
13002;SDS011;6566;57.702;11.984;2022-10-17T15:45:22;9.93;;;2.70;;
13002;SDS011;6566;57.702;11.984;2022-10-17T15:47:52;7.97;;;3.30;;
13002;SDS011;6566;57.702;11.984;2022-10-17T15:50:17;9.77;;;3.13;;
13002;SDS011;6566;57.702;11.984;2022-10-17T15:52:44;10.15;;;3.22;;
13002;SDS011;6566;57.702;11.984;2022-10-17T15:55:13;12.90;;;3.40;;
13002;SDS011;6566;57.702;11.984;2022-10-17T15:57:43;14.00;;;3.65;;
13002;SDS011;6566;57.702;11.984;2022-10-17T16:00:16;12.43;;;3.22;;
13002;SDS011;6566;57.702;11.984;2022-10-17T16:02:43;9.70;;;3.15;;
13002;SDS011;6566;57.702;11.984;2022-10-17T16:05:14;15.38;;;3.33;;
13002;SDS011;6566;57.702;11.984;2022-10-17T16:07:44;12.90;;;3.40;;
13002;SDS011;6566;57.702;11.984;2022-10-17T16:10:12;17.65;;;3.83;;
13002;SDS011;6566;57.702;11.984;2022-10-17T16:12:39;14.60;;;4.05;;
13002;SDS011;6566;57.702;11.984;2022-10-17T16:15:18;15.88;;;4.18;;
13002;SDS011;6566;57.702;11.984;2022-10-17T16:17:48;9.43;;;4.20;;
13002;SDS011;6566;57.702;11.984;2022-10-17T16:20:15;11.35;;;4.32;;
13002;SDS011;6566;57.702;11.984;2022-10-17T16:22:42;17.38;;;4.63;;
13002;SDS011;6566;57.702;11.984;2022-10-17T16:25:22;16.20;;;4.95;;
13002;SDS011;6566;57.702;11.984;2022-10-17T16:27:51;16.05;;;4.65;;
13002;SDS011;6566;57.702;11.984;2022-10-17T16:30:18;19.00;;;5.30;;
13002;SDS011;6566;57.702;11.984;2022-10-17T16:32:45;23.45;;;6.22;;
13002;SDS011;6566;57.702;11.984;2022-10-17T16:35:13;15.85;;;6.60;;
13002;SDS011;6566;57.702;11.984;2022-10-17T16:37:41;15.73;;;5.78;;
13002;SDS011;6566;57.702;11.984;2022-10-17T16:40:08;21.38;;;6.57;;
13002;SDS011;6566;57.702;11.984;2022-10-17T16:42:34;13.63;;;6.20;;
13002;SDS011;6566;57.702;11.984;2022-10-17T16:45:00;15.40;;;6.10;;
13002;SDS011;6566;57.702;11.984;2022-10-17T16:47:26;24.77;;;7.18;;
13002;SDS011;6566;57.702;11.984;2022-10-17T16:49:52;22.80;;;7.80;;
13002;SDS011;6566;57.702;11.984;2022-10-17T16:52:18;25.10;;;7.47;;
13002;SDS011;6566;57.702;11.984;2022-10-17T16:54:45;20.38;;;7.90;;
13002;SDS011;6566;57.702;11.984;2022-10-17T16:57:11;22.65;;;8.15;;